This is the latest recevied weather packets stored in our database for station/object LROP. If no packets are shown the sender has not sent any weather packets the latest 10 day(s).
| Time | Temp. | Humidity | Pressure | Rain* | Wind** | Luminosity | Snow |
|---|---|---|---|---|---|---|---|
| 1777060982 | 12.78° C | 47% | 1012 hPa | - | - | - | - |
| 1777060082 | 15° C | 42% | 1012 hPa | - | - | - | - |
| 1777059182 | 15° C | 42% | 1012 hPa | - | - | - | - |
| 1777058283 | 15° C | 42% | 1012 hPa | - | - | - | - |
| 1777057382 | 15° C | 42% | 1012 hPa | - | - | - | - |
| 1777056482 | 17.22° C | 37% | 1011 hPa | - | - | - | - |
| 1777055582 | 17.22° C | 37% | 1011 hPa | - | - | - | - |
| 1777053782 | 15° C | 48% | 1010 hPa | - | - | - | - |
| 1777052884 | 15° C | 51% | 1010 hPa | - | - | - | - |
| 1777051982 | 15° C | 51% | 1010 hPa | - | - | - | - |
| 1777051083 | 17.22° C | 42% | 1010 hPa | - | - | - | - |
| 1777050182 | 17.22° C | 42% | 1010 hPa | - | - | - | - |
| 1777049282 | 18.89° C | 35% | 1009 hPa | - | - | - | - |
| 1777048383 | 18.89° C | 35% | 1009 hPa | - | - | - | - |
| 1777047556 | 20° C | 30% | 1009 hPa | - | - | - | - |
| 1777046582 | 20° C | 30% | 1009 hPa | - | - | - | - |
| 1777045683 | 21.11° C | 29% | 1009 hPa | - | - | - | - |
| 1777044782 | 21.11° C | 29% | 1009 hPa | - | - | - | - |
| 1777043882 | 22.22° C | 27% | 1009 hPa | - | - | - | - |
| 1777042982 | 22.22° C | 27% | 1009 hPa | - | - | - | - |
| 1777042083 | 21.11° C | 31% | 1009 hPa | - | - | - | - |
| 1777041181 | 21.11° C | 31% | 1009 hPa | - | - | - | - |
| 1777040282 | 22.22° C | 25% | 1010 hPa | - | - | - | - |
| 1777039382 | 22.22° C | 25% | 1010 hPa | - | - | - | - |
| 1777038482 | 22.22° C | 27% | 1009 hPa | - | - | - | - |
* Rain since midnight (hover to see other rain measurements)
** Current wind speed in m/s (hover to see current wind gust speed)